createdAt,value
2023-01-17T00:00:27.135Z,3.08
2023-01-17T00:01:27.084Z,3.08
2023-01-17T00:02:27.140Z,3.10
2023-01-17T00:03:27.079Z,3.05
2023-01-17T00:04:27.062Z,3.05
2023-01-17T00:05:27.018Z,2.97
2023-01-17T00:06:27.013Z,2.95
2023-01-17T00:07:27.013Z,2.98
2023-01-17T00:09:00.389Z,2.92
2023-01-17T00:09:26.956Z,2.89
2023-01-17T00:10:26.943Z,2.86
2023-01-17T00:11:26.917Z,2.79
2023-01-17T00:12:26.902Z,2.80
2023-01-17T00:13:26.879Z,2.92
2023-01-17T00:14:26.921Z,2.89
2023-01-17T00:15:26.883Z,2.80
2023-01-17T00:16:26.832Z,2.92
2023-01-17T00:17:26.810Z,2.80
2023-01-17T00:18:26.793Z,2.86
2023-01-17T00:19:26.819Z,2.81
2023-01-17T00:20:26.791Z,2.94
2023-01-17T00:21:26.742Z,2.89
2023-01-17T00:22:26.726Z,2.89
2023-01-17T00:23:26.721Z,2.89
2023-01-17T00:24:26.734Z,2.90
2023-01-17T00:25:26.681Z,2.76
2023-01-17T00:26:26.661Z,2.83
2023-01-17T00:27:26.653Z,2.80
2023-01-17T00:28:26.642Z,2.84
2023-01-17T00:29:26.644Z,2.79
2023-01-17T00:30:26.595Z,2.77
2023-01-17T00:31:26.656Z,2.83
2023-01-17T00:32:26.568Z,2.86
2023-01-17T00:33:26.538Z,2.69
2023-01-17T00:34:26.546Z,2.80
2023-01-17T00:35:26.514Z,2.71
2023-01-17T00:36:26.484Z,2.77
2023-01-17T00:37:26.465Z,2.81
2023-01-17T00:38:26.484Z,2.71
2023-01-17T00:39:26.496Z,2.61
2023-01-17T00:40:26.431Z,2.79
2023-01-17T00:41:26.401Z,2.63
2023-01-17T00:42:26.400Z,2.62
2023-01-17T00:43:26.379Z,2.63
2023-01-17T00:44:26.384Z,2.66
2023-01-17T00:45:26.338Z,2.66
2023-01-17T00:46:26.351Z,2.63
2023-01-17T00:47:26.297Z,2.65
2023-01-17T00:48:26.286Z,2.68
2023-01-17T00:49:26.298Z,2.68
2023-01-17T00:50:26.246Z,2.68
2023-01-17T00:51:26.229Z,2.63
2023-01-17T00:52:26.206Z,2.59
2023-01-17T00:53:26.218Z,2.62
2023-01-17T00:54:26.238Z,2.55
2023-01-17T00:55:26.207Z,2.61
2023-01-17T00:56:26.157Z,2.62
2023-01-17T00:57:26.352Z,2.62
2023-01-17T00:58:26.101Z,2.63
2023-01-17T00:59:26.111Z,2.66
2023-01-17T01:00:26.075Z,2.69
2023-01-17T01:01:26.188Z,2.65
2023-01-17T01:02:28.440Z,2.65
2023-01-17T01:03:27.013Z,2.55
2023-01-17T01:04:26.035Z,2.63
2023-01-17T01:05:25.992Z,2.62
2023-01-17T01:06:25.971Z,2.63
2023-01-17T01:07:25.950Z,2.63
2023-01-17T01:08:25.943Z,2.65
2023-01-17T01:09:25.944Z,2.68
2023-01-17T01:10:25.915Z,2.66
2023-01-17T01:11:25.881Z,2.68
2023-01-17T01:12:25.859Z,2.66
2023-01-17T01:13:25.870Z,2.62
2023-01-17T01:14:25.885Z,2.69
2023-01-17T01:15:25.809Z,2.69
2023-01-17T01:16:25.862Z,2.69
2023-01-17T01:17:25.783Z,2.62
2023-01-17T01:18:25.803Z,2.61
2023-01-17T01:19:25.786Z,2.65
2023-01-17T01:20:25.738Z,2.66
2023-01-17T01:21:26.725Z,2.71
2023-01-17T01:22:25.702Z,2.61
2023-01-17T01:23:25.680Z,2.65
2023-01-17T01:24:25.685Z,2.69
2023-01-17T01:25:25.648Z,2.66
2023-01-17T01:26:25.634Z,2.61
2023-01-17T01:27:25.609Z,2.66
2023-01-17T01:28:25.606Z,2.56
2023-01-17T01:29:25.597Z,2.56
2023-01-17T01:30:25.562Z,2.62
2023-01-17T01:31:25.626Z,2.50
2023-01-17T01:32:25.522Z,2.47
2023-01-17T01:33:25.509Z,2.58
2023-01-17T01:34:25.549Z,2.62
2023-01-17T01:35:25.479Z,2.45
2023-01-17T01:36:25.477Z,2.47
2023-01-17T01:37:25.445Z,2.56
2023-01-17T01:38:25.456Z,2.45
2023-01-17T01:39:25.428Z,2.44
2023-01-17T01:40:25.393Z,2.53
2023-01-17T01:41:25.377Z,2.47
2023-01-17T01:42:25.367Z,2.32
2023-01-17T01:43:25.330Z,2.47
2023-01-17T01:44:25.344Z,2.47
2023-01-17T01:45:25.357Z,2.37
2023-01-17T01:46:25.296Z,2.40
2023-01-17T01:47:25.262Z,2.33
2023-01-17T01:48:25.277Z,2.38
2023-01-17T01:49:25.273Z,2.51
2023-01-17T01:50:25.228Z,2.44
2023-01-17T01:51:25.200Z,2.48
2023-01-17T01:52:25.190Z,2.50
2023-01-17T01:53:25.169Z,2.58
2023-01-17T01:54:25.180Z,2.56
2023-01-17T01:55:25.139Z,2.59
2023-01-17T01:56:25.118Z,2.63
2023-01-17T01:57:25.101Z,2.56
2023-01-17T01:58:25.089Z,2.61
2023-01-17T01:59:25.088Z,2.62
2023-01-17T02:00:25.043Z,2.62
2023-01-17T02:01:25.101Z,2.68
2023-01-17T02:02:25.005Z,2.58
2023-01-17T02:03:24.999Z,2.74
2023-01-17T02:04:25.018Z,2.63
2023-01-17T02:05:24.976Z,2.66
2023-01-17T02:06:24.936Z,2.68
2023-01-17T02:07:24.931Z,2.71
2023-01-17T02:08:24.902Z,2.86
2023-01-17T02:09:24.921Z,2.66
2023-01-17T02:10:24.903Z,2.71
2023-01-17T02:11:24.897Z,2.59
2023-01-17T02:12:24.828Z,2.69
2023-01-17T02:13:24.833Z,2.61
2023-01-17T02:14:24.831Z,2.69
2023-01-17T02:15:24.784Z,2.66
2023-01-17T02:16:24.837Z,2.73
2023-01-17T02:17:24.767Z,2.68
2023-01-17T02:18:24.730Z,2.73
2023-01-17T02:19:24.771Z,2.66
2023-01-17T02:20:24.709Z,2.66
2023-01-17T02:21:24.711Z,2.74
2023-01-17T02:22:24.674Z,2.66
2023-01-17T02:23:24.647Z,2.74
2023-01-17T02:24:24.657Z,2.83
2023-01-17T02:25:24.612Z,2.77
2023-01-17T02:26:24.612Z,2.80
2023-01-17T02:27:24.580Z,2.83
2023-01-17T02:28:24.570Z,2.84
2023-01-17T02:29:24.581Z,2.81
2023-01-17T02:30:24.533Z,2.80
2023-01-17T02:31:24.536Z,2.81
2023-01-17T02:32:24.488Z,2.81
2023-01-17T02:33:24.473Z,2.76
2023-01-17T02:34:24.500Z,2.71
2023-01-17T02:35:24.446Z,2.76
2023-01-17T02:36:24.445Z,2.83
2023-01-17T02:37:24.420Z,2.71
2023-01-17T02:38:24.390Z,2.84
2023-01-17T02:39:24.418Z,2.73
2023-01-17T02:40:24.356Z,2.79
2023-01-17T02:41:24.348Z,2.76
2023-01-17T02:42:24.322Z,2.61
2023-01-17T02:43:24.310Z,2.65
2023-01-17T02:44:24.290Z,2.74
2023-01-17T02:45:24.290Z,2.69
2023-01-17T02:46:24.248Z,2.62
2023-01-17T02:47:24.243Z,2.69
2023-01-17T02:48:24.201Z,2.74
2023-01-17T02:49:25.232Z,2.56
2023-01-17T02:50:24.179Z,2.69
2023-01-17T02:51:24.162Z,2.65
2023-01-17T02:52:24.168Z,2.66
2023-01-17T02:53:24.144Z,2.74
2023-01-17T02:54:24.107Z,2.69
2023-01-17T02:55:24.137Z,2.66
2023-01-17T02:56:24.077Z,2.87
2023-01-17T02:57:24.055Z,2.74
2023-01-17T02:58:24.047Z,2.76
2023-01-17T02:59:24.018Z,2.77
2023-01-17T03:00:24.048Z,2.66
2023-01-17T03:01:24.083Z,2.73
2023-01-17T03:02:24.005Z,2.74
2023-01-17T03:03:23.954Z,2.79
2023-01-17T03:04:23.941Z,2.83
2023-01-17T03:05:23.951Z,2.76
2023-01-17T03:06:23.903Z,2.80
2023-01-17T03:07:23.881Z,2.73
2023-01-17T03:08:23.864Z,2.76
2023-01-17T03:09:23.849Z,2.81
2023-01-17T03:10:23.895Z,2.74
2023-01-17T03:11:23.837Z,2.77
2023-01-17T03:12:23.793Z,2.76
2023-01-17T03:13:23.783Z,2.81
2023-01-17T03:14:23.779Z,2.68
2023-01-17T03:15:23.789Z,2.80
2023-01-17T03:16:23.828Z,2.68
2023-01-17T03:17:23.722Z,2.59
2023-01-17T03:18:23.690Z,2.55
2023-01-17T03:19:23.691Z,2.65
2023-01-17T03:20:23.698Z,2.61
2023-01-17T03:21:23.649Z,2.58
2023-01-17T03:22:23.631Z,2.59
2023-01-17T03:23:23.615Z,2.58
2023-01-17T03:24:23.593Z,2.56
2023-01-17T03:25:23.606Z,2.51
2023-01-17T03:26:23.590Z,2.48
2023-01-17T03:27:23.545Z,2.45
2023-01-17T03:28:23.536Z,2.59
2023-01-17T03:29:23.507Z,2.51
2023-01-17T03:30:23.557Z,2.56
2023-01-17T03:31:23.478Z,2.61
2023-01-17T03:32:23.465Z,2.63
2023-01-17T03:33:23.450Z,2.66
2023-01-17T03:34:23.429Z,2.65
2023-01-17T03:35:23.455Z,2.66
2023-01-17T03:36:23.402Z,2.73
2023-01-17T03:37:23.372Z,2.56
2023-01-17T03:38:23.357Z,2.59
2023-01-17T03:39:23.347Z,2.62
2023-01-17T03:40:23.372Z,2.58
2023-01-17T03:41:23.306Z,2.55
2023-01-17T03:42:23.285Z,2.61
2023-01-17T03:43:23.286Z,2.53
2023-01-17T03:44:23.249Z,2.51
2023-01-17T03:45:23.261Z,2.61
2023-01-17T03:46:23.218Z,2.59
2023-01-17T03:47:23.212Z,2.58
2023-01-17T03:48:23.185Z,2.62
2023-01-17T03:49:23.184Z,2.53
2023-01-17T03:50:23.188Z,2.66
2023-01-17T03:51:23.140Z,2.56
2023-01-17T03:52:24.123Z,2.50
2023-01-17T03:53:23.125Z,2.66
2023-01-17T03:54:23.089Z,2.50
2023-01-17T03:55:23.128Z,2.43
2023-01-17T03:56:23.055Z,2.45
2023-01-17T03:57:23.033Z,2.59
2023-01-17T03:58:23.024Z,2.53
2023-01-17T03:59:23.006Z,2.56
2023-01-17T04:00:23.015Z,2.53
2023-01-17T04:01:23.071Z,2.59
2023-01-17T04:02:23.042Z,2.41
2023-01-17T04:03:22.933Z,2.40
2023-01-17T04:04:22.937Z,2.47
2023-01-17T04:05:22.931Z,2.37
2023-01-17T04:06:22.887Z,2.44
2023-01-17T04:07:22.866Z,2.51
2023-01-17T04:08:22.855Z,2.45
2023-01-17T04:09:22.846Z,2.50
2023-01-17T04:10:22.852Z,2.40
2023-01-17T04:11:22.828Z,2.41
2023-01-17T04:12:22.790Z,2.44
2023-01-17T04:13:22.754Z,2.44
2023-01-17T04:14:22.756Z,2.51
2023-01-17T04:15:22.754Z,2.37
2023-01-17T04:16:22.717Z,2.51
2023-01-17T04:17:22.720Z,2.36
2023-01-17T04:18:22.670Z,2.45
2023-01-17T04:19:22.679Z,2.44
2023-01-17T04:20:22.673Z,2.43
2023-01-17T04:21:22.631Z,2.43
2023-01-17T04:22:22.591Z,2.44
2023-01-17T04:23:22.597Z,2.37
2023-01-17T04:24:22.556Z,2.40
2023-01-17T04:25:22.585Z,2.36
2023-01-17T04:26:22.524Z,2.40
2023-01-17T04:27:22.518Z,2.48
2023-01-17T04:28:22.493Z,2.44
2023-01-17T04:29:22.483Z,2.45
2023-01-17T04:30:22.492Z,2.38
2023-01-17T04:31:22.476Z,2.43
2023-01-17T04:32:22.421Z,2.50
2023-01-17T04:33:22.416Z,2.23
2023-01-17T04:34:22.387Z,2.38
2023-01-17T04:35:22.425Z,2.33
2023-01-17T04:36:22.354Z,2.23
2023-01-17T04:37:22.389Z,2.29
2023-01-17T04:38:22.379Z,2.18
2023-01-17T04:39:22.302Z,2.15
2023-01-17T04:40:22.325Z,2.30
2023-01-17T04:41:22.267Z,2.14
2023-01-17T04:42:22.262Z,2.30
2023-01-17T04:43:22.240Z,2.36
2023-01-17T04:44:22.221Z,2.38
2023-01-17T04:45:22.243Z,2.30
2023-01-17T04:46:22.202Z,2.33
2023-01-17T04:47:22.191Z,2.29
2023-01-17T04:48:22.146Z,2.20
2023-01-17T04:49:22.135Z,2.18
2023-01-17T04:50:22.155Z,2.12
2023-01-17T04:51:22.097Z,2.22
2023-01-17T04:52:22.091Z,2.23
2023-01-17T04:53:22.094Z,2.18
2023-01-17T04:54:22.046Z,2.20
2023-01-17T04:55:22.086Z,2.19
2023-01-17T04:56:22.011Z,2.14
2023-01-17T04:57:22.011Z,2.27
2023-01-17T04:58:21.984Z,2.12
2023-01-17T04:59:21.976Z,2.20
2023-01-17T05:00:24.051Z,2.01
2023-01-17T05:01:23.058Z,2.11
2023-01-17T05:02:22.978Z,2.07
2023-01-17T05:03:21.902Z,2.07
2023-01-17T05:04:21.867Z,2.15
2023-01-17T05:05:21.890Z,2.12
2023-01-17T05:06:21.877Z,2.14
2023-01-17T05:07:21.819Z,2.11
2023-01-17T05:08:21.806Z,2.04
2023-01-17T05:09:21.788Z,2.07
2023-01-17T05:10:21.792Z,1.86
2023-01-17T05:11:21.769Z,2.01
2023-01-17T05:12:21.727Z,1.98
2023-01-17T05:13:21.731Z,2.05
2023-01-17T05:14:21.716Z,2.15
2023-01-17T05:15:21.747Z,2.11
2023-01-17T05:16:21.703Z,2.12
2023-01-17T05:17:21.645Z,2.15
2023-01-17T05:18:21.637Z,2.12
2023-01-17T05:19:21.609Z,2.04
2023-01-17T05:20:21.624Z,2.12
2023-01-17T05:21:21.574Z,2.11
2023-01-17T05:22:21.567Z,1.98
2023-01-17T05:23:21.540Z,2.18
2023-01-17T05:24:21.534Z,2.01
2023-01-17T05:25:21.548Z,2.09
2023-01-17T05:26:21.488Z,2.09
2023-01-17T05:27:21.493Z,2.05
2023-01-17T05:28:21.481Z,2.11
2023-01-17T05:29:21.443Z,2.05
2023-01-17T05:30:21.471Z,2.27
2023-01-17T05:31:21.450Z,2.11
2023-01-17T05:32:22.392Z,2.19
2023-01-17T05:33:21.382Z,2.20
2023-01-17T05:34:21.360Z,2.15
2023-01-17T05:35:21.366Z,2.08
2023-01-17T05:36:21.328Z,2.11
2023-01-17T05:37:21.307Z,2.11
2023-01-17T05:38:21.284Z,2.08
2023-01-17T05:39:21.283Z,2.07
2023-01-17T05:40:21.279Z,2.01
2023-01-17T05:41:21.251Z,1.85
2023-01-17T05:42:21.229Z,1.90
2023-01-17T05:43:22.241Z,1.82
2023-01-17T05:44:22.180Z,1.71
2023-01-17T05:45:21.215Z,1.85
2023-01-17T05:46:21.201Z,1.71
2023-01-17T05:47:21.142Z,1.56
2023-01-17T05:48:21.131Z,1.67
2023-01-17T05:49:21.111Z,1.57
2023-01-17T05:50:21.109Z,1.54
2023-01-17T05:51:21.103Z,1.52
2023-01-17T05:52:21.049Z,1.46
2023-01-17T05:53:21.026Z,1.54
2023-01-17T05:54:21.019Z,1.54
2023-01-17T05:55:21.025Z,1.49
2023-01-17T05:56:20.987Z,1.36
2023-01-17T05:57:20.971Z,1.44
2023-01-17T05:58:20.958Z,1.46
2023-01-17T05:59:32.402Z,1.34
2023-01-17T06:00:22.970Z,1.44
2023-01-17T06:01:20.939Z,1.38
2023-01-17T06:02:20.905Z,1.36
2023-01-17T06:03:20.873Z,1.39
2023-01-17T06:04:20.879Z,1.32
2023-01-17T06:05:20.874Z,1.29
2023-01-17T06:06:20.810Z,1.36
2023-01-17T06:07:20.809Z,1.34
2023-01-17T06:08:20.774Z,1.31
2023-01-17T06:09:53.303Z,1.32
2023-01-17T06:10:20.801Z,1.42
2023-01-17T06:11:20.744Z,1.36
2023-01-17T06:12:22.103Z,1.31
2023-01-17T06:13:21.701Z,1.38
2023-01-17T06:14:20.678Z,1.42
2023-01-17T06:15:20.663Z,1.39
2023-01-17T06:16:20.723Z,1.29
2023-01-17T06:17:20.632Z,1.36
2023-01-17T06:18:20.611Z,1.35
2023-01-17T06:19:20.603Z,1.31
2023-01-17T06:20:20.583Z,1.38
2023-01-17T06:21:20.674Z,1.36
2023-01-17T06:22:20.541Z,1.26
2023-01-17T06:23:20.543Z,1.38
2023-01-17T06:24:20.515Z,1.38
2023-01-17T06:25:20.494Z,1.34
2023-01-17T06:26:20.514Z,1.44
2023-01-17T06:27:20.470Z,1.50
2023-01-17T06:28:20.436Z,1.52
2023-01-17T06:29:20.422Z,1.54
2023-01-17T06:30:20.398Z,1.50
2023-01-17T06:31:20.429Z,1.54
2023-01-17T06:32:20.372Z,1.54
2023-01-17T06:33:20.347Z,1.60
2023-01-17T06:34:20.331Z,1.56
2023-01-17T06:35:20.335Z,1.60
2023-01-17T06:36:20.346Z,1.47
2023-01-17T06:37:20.278Z,1.63
2023-01-17T06:38:20.258Z,1.63
2023-01-17T06:39:20.247Z,1.56
2023-01-17T06:40:20.224Z,1.68
2023-01-17T06:41:20.247Z,1.56
2023-01-17T06:42:20.210Z,1.67
2023-01-17T06:43:20.340Z,1.63
2023-01-17T06:44:20.181Z,1.56
2023-01-17T06:45:20.156Z,1.56
2023-01-17T06:46:20.218Z,1.64
2023-01-17T06:47:20.103Z,1.54
2023-01-17T06:48:20.114Z,1.71
2023-01-17T06:49:20.068Z,1.67
2023-01-17T06:50:20.134Z,1.75
2023-01-17T06:51:20.082Z,1.68
2023-01-17T06:52:20.030Z,1.77
2023-01-17T06:53:20.003Z,1.75
2023-01-17T06:54:19.991Z,1.72
2023-01-17T06:55:19.974Z,1.79
2023-01-17T06:56:19.988Z,1.60
2023-01-17T06:57:19.938Z,1.70
2023-01-17T06:58:19.959Z,1.68
2023-01-17T06:59:19.887Z,1.71
2023-01-17T07:00:19.877Z,1.72
2023-01-17T07:01:20.064Z,1.81
2023-01-17T07:02:19.865Z,1.70
2023-01-17T07:03:19.858Z,1.67
2023-01-17T07:04:19.816Z,1.60
2023-01-17T07:05:19.805Z,1.60
2023-01-17T07:06:20.808Z,1.52
2023-01-17T07:07:19.770Z,1.54
2023-01-17T07:08:19.766Z,1.52
2023-01-17T07:09:19.722Z,1.56
2023-01-17T07:10:19.712Z,1.65
2023-01-17T07:11:19.737Z,1.64
2023-01-17T07:12:19.674Z,1.52
2023-01-17T07:13:19.665Z,1.56
2023-01-17T07:14:19.650Z,1.57
2023-01-17T07:15:20.635Z,1.60
2023-01-17T07:16:19.671Z,1.60
2023-01-17T07:17:19.591Z,1.60
2023-01-17T07:18:19.581Z,1.61
2023-01-17T07:19:19.588Z,1.53
2023-01-17T07:20:19.544Z,1.61
2023-01-17T07:21:19.564Z,1.64
2023-01-17T07:22:19.513Z,1.56
2023-01-17T07:23:19.491Z,1.70
2023-01-17T07:24:19.472Z,1.57
2023-01-17T07:25:19.489Z,1.57
2023-01-17T07:26:19.468Z,1.54
2023-01-17T07:27:19.420Z,1.54
2023-01-17T07:28:19.403Z,1.63
2023-01-17T07:29:19.389Z,1.64
2023-01-17T07:30:19.375Z,1.64
2023-01-17T07:31:19.512Z,1.64
2023-01-17T07:32:19.331Z,1.70
2023-01-17T07:33:19.326Z,1.61
2023-01-17T07:34:19.307Z,1.65
2023-01-17T07:35:19.292Z,1.56
2023-01-17T07:36:19.609Z,1.65
2023-01-17T07:37:19.260Z,1.67
2023-01-17T07:38:19.322Z,1.65
2023-01-17T07:39:19.259Z,1.60
2023-01-17T07:40:19.197Z,1.60
2023-01-17T07:41:19.235Z,1.67
2023-01-17T07:42:19.198Z,1.57
2023-01-17T07:43:19.161Z,1.61
2023-01-17T07:44:19.128Z,1.70
2023-01-17T07:45:19.121Z,1.89
2023-01-17T07:46:19.173Z,1.95
2023-01-17T07:47:19.076Z,1.90
2023-01-17T07:48:19.055Z,2.08
2023-01-17T07:49:19.061Z,2.08
2023-01-17T07:50:19.038Z,1.92
2023-01-17T07:51:19.052Z,2.01
2023-01-17T07:52:18.992Z,2.02
2023-01-17T07:53:18.978Z,2.01
2023-01-17T07:54:18.984Z,1.93
2023-01-17T07:55:18.941Z,1.93
2023-01-17T07:56:18.985Z,1.93
2023-01-17T07:57:18.912Z,1.90
2023-01-17T07:58:18.887Z,1.93
2023-01-17T07:59:18.868Z,1.85
2023-01-17T08:00:18.853Z,1.95
2023-01-17T08:01:18.924Z,1.95
2023-01-17T08:02:18.816Z,2.04
2023-01-17T08:03:18.852Z,1.92
2023-01-17T08:04:18.795Z,2.00
2023-01-17T08:05:18.771Z,2.01
2023-01-17T08:06:18.830Z,2.05
2023-01-17T08:07:18.741Z,1.89
2023-01-17T08:08:18.722Z,1.92
2023-01-17T08:09:18.688Z,1.86
2023-01-17T08:10:18.696Z,1.90
2023-01-17T08:11:18.682Z,1.85
2023-01-17T08:12:18.644Z,1.90
2023-01-17T08:13:18.628Z,1.89
2023-01-17T08:14:18.607Z,1.81
2023-01-17T08:15:18.604Z,1.95
2023-01-17T08:16:18.659Z,2.02
2023-01-17T08:17:18.565Z,2.04
2023-01-17T08:18:18.652Z,2.11
2023-01-17T08:19:18.541Z,2.11
2023-01-17T08:20:18.498Z,2.04
2023-01-17T08:21:19.535Z,2.18
2023-01-17T08:22:18.494Z,2.11
2023-01-17T08:23:18.471Z,2.19
2023-01-17T08:24:18.435Z,2.33
2023-01-17T08:25:18.464Z,2.32
2023-01-17T08:26:18.439Z,2.36
2023-01-17T08:27:18.389Z,2.27
2023-01-17T08:28:18.360Z,2.36
2023-01-17T08:29:18.345Z,2.33
2023-01-17T08:30:18.334Z,2.37
2023-01-17T08:31:18.371Z,2.36
2023-01-17T08:32:18.332Z,2.50
2023-01-17T08:33:18.345Z,2.51
2023-01-17T08:34:18.265Z,2.44
2023-01-17T08:35:18.237Z,2.36
2023-01-17T08:36:18.241Z,2.19
2023-01-17T08:37:18.282Z,2.25
2023-01-17T08:38:18.226Z,2.18
2023-01-17T08:39:18.171Z,2.19
2023-01-17T08:40:18.866Z,2.26
2023-01-17T08:41:18.155Z,2.20
2023-01-17T08:42:18.171Z,2.20
2023-01-17T08:43:18.115Z,2.33
2023-01-17T08:44:18.093Z,2.37
2023-01-17T08:45:18.130Z,2.22
2023-01-17T08:46:18.073Z,2.36
2023-01-17T08:47:18.136Z,2.37
2023-01-17T08:48:18.025Z,2.20
2023-01-17T08:49:18.013Z,2.40
2023-01-17T08:50:17.986Z,2.38
2023-01-17T08:51:17.978Z,2.50
2023-01-17T08:52:17.982Z,2.43
2023-01-17T08:53:17.940Z,2.38
2023-01-17T08:54:17.989Z,2.50
2023-01-17T08:55:17.948Z,2.37
2023-01-17T08:56:17.910Z,2.41
2023-01-17T08:57:17.892Z,2.51
2023-01-17T08:58:17.841Z,2.45
2023-01-17T08:59:17.825Z,2.48
2023-01-17T09:00:17.799Z,2.40
2023-01-17T09:01:17.885Z,2.40
2023-01-17T09:02:18.825Z,2.50
2023-01-17T09:03:17.760Z,2.61
2023-01-17T09:04:17.792Z,2.66
2023-01-17T09:05:17.728Z,2.63
2023-01-17T09:06:17.733Z,2.65
2023-01-17T09:07:17.781Z,2.76
2023-01-17T09:08:17.688Z,2.76
2023-01-17T09:09:17.649Z,2.74
2023-01-17T09:10:17.653Z,2.94
2023-01-17T09:11:17.656Z,2.98
2023-01-17T09:12:17.646Z,3.04
2023-01-17T09:13:17.615Z,3.12
2023-01-17T09:14:17.621Z,3.26
2023-01-17T09:15:17.549Z,3.26
2023-01-17T09:16:17.572Z,3.44
2023-01-17T09:17:17.613Z,3.53
2023-01-17T09:18:17.504Z,3.34
2023-01-17T09:19:17.554Z,3.33
2023-01-17T09:20:17.515Z,3.23
2023-01-17T09:21:17.464Z,3.19
2023-01-17T09:22:17.512Z,3.20
2023-01-17T09:23:17.542Z,3.26
2023-01-17T09:24:17.402Z,2.97
2023-01-17T09:25:17.389Z,3.15
2023-01-17T09:26:17.364Z,3.10
2023-01-17T09:27:17.448Z,3.20
2023-01-17T09:28:17.369Z,3.19
2023-01-17T09:29:17.309Z,3.15
2023-01-17T09:30:17.338Z,3.10
2023-01-17T09:31:17.673Z,3.12
2023-01-17T09:32:18.302Z,3.12
2023-01-17T09:33:17.252Z,3.12
2023-01-17T09:34:17.234Z,3.12
2023-01-17T09:35:17.226Z,3.02
2023-01-17T09:36:17.197Z,2.92
2023-01-17T09:37:17.211Z,2.95
2023-01-17T09:38:17.165Z,2.92
2023-01-17T09:39:17.162Z,2.86
2023-01-17T09:40:17.201Z,2.83
2023-01-17T09:41:17.100Z,2.74
2023-01-17T09:42:17.166Z,2.66
2023-01-17T09:43:17.132Z,2.62
2023-01-17T09:44:17.066Z,2.83
2023-01-17T09:45:17.045Z,2.95
2023-01-17T09:46:17.081Z,2.84
2023-01-17T09:47:17.154Z,2.83
2023-01-17T09:48:16.983Z,2.92
2023-01-17T09:49:16.964Z,3.08
2023-01-17T09:50:16.956Z,3.23
2023-01-17T09:51:16.982Z,3.49
2023-01-17T09:52:16.952Z,3.53
2023-01-17T09:53:16.901Z,3.93
2023-01-17T09:54:16.876Z,5.44
2023-01-17T09:55:16.872Z,6.91
2023-01-17T09:56:16.857Z,7.77
2023-01-17T09:57:16.865Z,8.47
2023-01-17T09:58:16.816Z,9.19
2023-01-17T09:59:18.754Z,9.42
2023-01-17T10:00:17.791Z,9.74
2023-01-17T10:01:16.922Z,10.06
2023-01-17T10:02:16.999Z,10.26
2023-01-17T10:03:16.984Z,10.47
2023-01-17T10:04:16.817Z,10.69
2023-01-17T10:05:16.696Z,10.43
2023-01-17T10:06:16.684Z,10.70
2023-01-17T10:07:16.686Z,10.69
2023-01-17T10:08:16.638Z,11.19
2023-01-17T10:09:16.718Z,11.12
2023-01-17T10:10:16.615Z,10.72
2023-01-17T10:11:16.585Z,10.47
2023-01-17T10:12:16.612Z,9.96
2023-01-17T10:13:16.556Z,9.23
2023-01-17T10:14:16.556Z,9.71
2023-01-17T10:15:16.545Z,9.88
2023-01-17T10:16:16.549Z,9.55
2023-01-17T10:17:16.529Z,9.01
2023-01-17T10:18:28.905Z,8.88
2023-01-17T10:19:18.453Z,8.97
2023-01-17T10:20:17.430Z,8.49
2023-01-17T10:21:16.414Z,8.12
2023-01-17T10:22:17.468Z,8.03
2023-01-17T10:23:16.397Z,7.96
2023-01-17T10:24:16.444Z,7.76
2023-01-17T10:25:16.368Z,7.74
2023-01-17T10:26:16.354Z,7.54
2023-01-17T10:27:16.405Z,7.37
2023-01-17T10:28:16.390Z,7.24
2023-01-17T10:29:16.297Z,7.12
2023-01-17T10:30:16.272Z,6.93
2023-01-17T10:31:16.309Z,6.82
2023-01-17T10:32:16.280Z,7.04
2023-01-17T10:33:16.225Z,6.99
2023-01-17T10:34:16.198Z,6.79
2023-01-17T10:35:16.200Z,6.69
2023-01-17T10:36:16.162Z,6.60
2023-01-17T10:37:16.173Z,6.51
2023-01-17T10:38:16.118Z,6.32
2023-01-17T10:39:17.116Z,6.30
2023-01-17T10:40:16.111Z,6.27
2023-01-17T10:41:16.086Z,6.19
2023-01-17T10:42:16.087Z,5.96
2023-01-17T10:43:16.079Z,5.87
2023-01-17T10:44:16.026Z,5.74
2023-01-17T10:45:16.010Z,5.52
2023-01-17T10:46:16.143Z,5.42
2023-01-17T10:47:16.024Z,5.20
2023-01-17T10:48:15.968Z,5.04
2023-01-17T10:49:15.970Z,4.90
2023-01-17T10:50:15.979Z,4.84
2023-01-17T10:51:15.901Z,4.69
2023-01-17T10:52:15.910Z,4.57
2023-01-17T10:53:15.894Z,4.62
2023-01-17T10:54:15.859Z,4.54
2023-01-17T10:55:15.838Z,4.46
2023-01-17T10:56:15.817Z,4.42
2023-01-17T10:57:15.842Z,4.31
2023-01-17T10:58:15.780Z,4.17
2023-01-17T10:59:15.824Z,4.04
2023-01-17T11:00:15.746Z,3.93
2023-01-17T11:01:15.858Z,4.90
2023-01-17T11:02:15.857Z,5.83
2023-01-17T11:03:15.705Z,6.69
2023-01-17T11:04:15.682Z,7.42
2023-01-17T11:05:15.780Z,8.04
2023-01-17T11:06:15.644Z,8.50
2023-01-17T11:07:15.690Z,8.94
2023-01-17T11:08:15.678Z,9.37
2023-01-17T11:09:15.633Z,9.50
2023-01-17T11:10:15.572Z,10.09
2023-01-17T11:11:15.574Z,9.95
2023-01-17T11:12:15.575Z,9.44
2023-01-17T11:13:15.531Z,10.07
2023-01-17T11:14:15.520Z,9.89
2023-01-17T11:15:15.500Z,9.77
2023-01-17T11:16:15.507Z,9.13
2023-01-17T11:17:15.761Z,8.34
2023-01-17T11:18:15.449Z,7.88
2023-01-17T11:19:15.474Z,7.39
2023-01-17T11:20:15.429Z,7.32
2023-01-17T11:21:15.381Z,7.55
2023-01-17T11:22:15.442Z,7.48
2023-01-17T11:23:15.382Z,7.09
2023-01-17T11:24:15.369Z,6.99
2023-01-17T11:25:15.351Z,7.18
2023-01-17T11:26:15.328Z,8.03
2023-01-17T11:27:15.325Z,8.60
2023-01-17T11:28:15.305Z,8.65
2023-01-17T11:29:15.272Z,9.17
2023-01-17T11:30:15.238Z,9.60
2023-01-17T11:31:15.288Z,9.99
2023-01-17T11:32:15.244Z,10.36
2023-01-17T11:33:15.190Z,10.65
2023-01-17T11:34:16.199Z,10.88
2023-01-17T11:35:15.211Z,10.32
2023-01-17T11:36:15.132Z,9.85
2023-01-17T11:37:15.123Z,10.28
2023-01-17T11:38:15.135Z,10.29
2023-01-17T11:39:15.164Z,9.68
2023-01-17T11:40:15.214Z,9.19
2023-01-17T11:41:15.112Z,8.76
2023-01-17T11:42:15.032Z,8.34
2023-01-17T11:43:15.043Z,8.06
2023-01-17T11:44:15.005Z,8.28
2023-01-17T11:45:14.981Z,8.71
2023-01-17T11:46:15.025Z,8.82
2023-01-17T11:47:14.944Z,8.28
2023-01-17T11:48:14.971Z,8.37
2023-01-17T11:49:14.916Z,8.91
2023-01-17T11:50:14.901Z,9.42
2023-01-17T11:51:14.876Z,9.75
2023-01-17T11:52:14.866Z,9.88
2023-01-17T11:53:15.017Z,10.24
2023-01-17T11:54:14.839Z,10.49
2023-01-17T11:55:14.809Z,10.38
2023-01-17T11:56:14.793Z,10.57
2023-01-17T11:57:14.776Z,10.51
2023-01-17T11:58:14.785Z,10.42
2023-01-17T11:59:14.751Z,10.38
2023-01-17T12:00:14.734Z,10.04
2023-01-17T12:01:14.747Z,9.86
2023-01-17T12:02:14.699Z,9.70
2023-01-17T12:03:14.709Z,9.40
2023-01-17T12:04:14.664Z,9.03
2023-01-17T12:05:14.683Z,8.80
2023-01-17T12:06:14.657Z,8.73
2023-01-17T12:07:14.614Z,8.64
2023-01-17T12:08:14.624Z,8.54
2023-01-17T12:09:14.580Z,8.49
2023-01-17T12:10:14.693Z,8.36
2023-01-17T12:12:33.012Z,8.07
2023-01-17T12:13:32.994Z,8.03
2023-01-17T12:14:32.971Z,7.88
2023-01-17T12:15:32.949Z,7.82
2023-01-17T12:16:32.928Z,7.86
2023-01-17T12:17:32.949Z,7.84
2023-01-17T12:18:32.889Z,7.73
2023-01-17T12:19:32.881Z,7.58
2023-01-17T12:20:32.867Z,7.26
2023-01-17T12:21:33.993Z,7.14
2023-01-17T12:22:34.025Z,6.89
2023-01-17T12:23:33.965Z,6.81
2023-01-17T12:24:33.933Z,6.82
2023-01-17T12:25:33.936Z,6.79
2023-01-17T12:26:33.902Z,6.72
2023-01-17T12:27:33.917Z,6.81
2023-01-17T12:28:33.889Z,6.83
2023-01-17T12:29:33.870Z,6.81
2023-01-17T12:30:33.833Z,6.75
2023-01-17T12:31:33.834Z,6.71
2023-01-17T12:32:33.827Z,6.64
2023-01-17T12:33:33.788Z,6.40
2023-01-17T12:34:33.775Z,6.24
2023-01-17T12:35:33.751Z,6.24
2023-01-17T12:36:33.808Z,6.24
2023-01-17T12:37:33.755Z,6.10
2023-01-17T12:38:33.728Z,5.99
2023-01-17T12:39:33.693Z,5.92
2023-01-17T12:40:33.669Z,5.90
2023-01-17T12:41:33.644Z,5.75
2023-01-17T12:42:33.646Z,5.62
2023-01-17T12:43:33.657Z,5.42
2023-01-17T12:44:33.602Z,5.29
2023-01-17T12:45:33.578Z,5.27
2023-01-17T12:46:33.636Z,5.38
2023-01-17T12:47:33.590Z,5.27
2023-01-17T12:48:33.528Z,5.26
2023-01-17T12:49:33.517Z,5.27
2023-01-17T12:50:33.526Z,5.23
2023-01-17T12:51:33.483Z,5.26
2023-01-17T12:52:33.459Z,5.15
2023-01-17T12:53:33.476Z,5.12
2023-01-17T12:54:33.429Z,5.11
2023-01-17T12:55:33.423Z,5.02
2023-01-17T12:56:33.492Z,4.83
2023-01-17T12:57:33.385Z,4.84
2023-01-17T12:58:33.399Z,4.75
2023-01-17T12:59:33.350Z,4.65
2023-01-17T13:00:33.344Z,4.64
2023-01-17T13:01:33.444Z,4.56
2023-01-17T13:02:33.331Z,4.57
2023-01-17T13:03:33.295Z,4.51
2023-01-17T13:04:33.264Z,4.49
2023-01-17T13:05:33.239Z,4.43
2023-01-17T13:06:33.233Z,4.50
2023-01-17T13:07:33.211Z,4.54
2023-01-17T13:08:33.209Z,4.53
2023-01-17T13:09:33.166Z,4.57
2023-01-17T13:10:34.143Z,4.49
2023-01-17T13:11:33.135Z,4.54
2023-01-17T13:12:33.111Z,4.56
2023-01-17T13:13:33.140Z,4.68
2023-01-17T13:14:33.088Z,4.54
2023-01-17T13:15:33.068Z,4.56
2023-01-17T13:16:33.099Z,4.53
2023-01-17T13:17:33.031Z,4.53
2023-01-17T13:18:33.045Z,4.54